Time;durP1;ratioP1;P1;durP2;ratioP2;P2;SDS_P1;SDS_P2;PMS_P1;PMS_P2;Temp;Humidity;BMP_temperature;BMP_pressure;BME280_temperature;BME280_humidity;BME280_pressure;Samples;Min_cycle;Max_cycle;Signal;HPM_P1;HPM_P2
2022/06/12 00:01:09;;;;;;;6.05;2.72;;;;;;;23.49;36.06;101272.00;4214817;28;20422;-67
2022/06/12 00:03:14;;;;;;;8.27;2.58;;;;;;;23.49;36.02;101269.22;4214915;28;20429;-67
2022/06/12 00:05:19;;;;;;;3.53;2.47;;;;;;;23.50;36.10;101273.69;4214821;28;20036;-67
2022/06/12 00:07:20;;;;;;;5.88;2.92;;;;;;;23.50;36.18;101275.63;4214637;28;20097;-66
2022/06/12 00:09:21;;;;;;;8.02;2.92;;;;;;;23.50;35.81;101281.22;4214856;28;20040;-66
2022/06/12 00:11:26;;;;;;;5.18;2.75;;;;;;;23.46;35.70;101274.53;4214822;28;20093;-67
2022/06/12 00:13:35;;;;;;;5.53;2.72;;;;;;;23.48;36.04;101277.91;4214899;28;20048;-68
2022/06/12 00:15:36;;;;;;;5.45;2.90;;;;;;;23.49;36.02;101290.72;4211633;28;20101;-66
2022/06/12 00:17:38;;;;;;;6.00;2.65;;;;;;;23.49;35.93;101274.81;4213663;28;20093;-66
2022/06/12 00:19:44;;;;;;;6.53;3.05;;;;;;;23.48;36.04;101275.09;4211486;28;20090;-67
2022/06/12 00:21:49;;;;;;;7.65;2.90;;;;;;;23.47;35.66;101287.41;4201870;28;20110;-67
2022/06/12 00:24:00;;;;;;;3.45;2.20;;;;;;;23.47;35.61;101287.41;4214650;28;20081;-67
2022/06/12 00:26:05;;;;;;;4.70;2.58;;;;;;;23.42;35.77;101279.06;4214313;28;20082;-67
2022/06/12 00:28:07;;;;;;;6.72;2.67;;;;;;;23.46;35.89;101283.78;4214431;28;20044;-67
2022/06/12 00:30:11;;;;;;;3.67;2.47;;;;;;;23.46;35.84;101283.78;4214795;28;20036;-67
2022/06/12 00:32:15;;;;;;;4.37;2.47;;;;;;;23.47;35.88;101287.41;4213990;28;20040;-65
2022/06/12 00:34:19;;;;;;;9.27;3.35;;;;;;;23.45;36.06;101289.63;4214579;28;20326;-66
2022/06/12 00:36:23;;;;;;;6.03;2.55;;;;;;;23.43;35.93;101281.56;4214301;28;20532;-67
2022/06/12 00:38:25;;;;;;;4.10;2.47;;;;;;;23.45;35.75;101282.09;4214757;28;20032;-66
2022/06/12 00:40:27;;;;;;;4.95;3.03;;;;;;;23.42;35.71;101279.06;4214497;28;20055;-67
2022/06/12 00:42:36;;;;;;;8.50;2.55;;;;;;;23.45;36.01;101281.25;4214936;28;20031;-66
2022/06/12 00:44:41;;;;;;;5.70;2.50;;;;;;;23.43;35.59;101275.13;4214696;28;20024;-67
2022/06/12 00:46:55;;;;;;;4.38;2.55;;;;;;;23.43;35.64;101280.72;4214857;28;20035;-66
2022/06/12 00:48:57;;;;;;;4.13;2.40;;;;;;;23.44;35.51;101290.75;4214637;28;20040;-65
2022/06/12 00:51:09;;;;;;;3.15;2.42;;;;;;;23.43;35.58;101289.09;4214719;28;20272;-66
2022/06/12 00:53:17;;;;;;;4.95;2.65;;;;;;;23.43;35.85;101287.16;4212324;28;20036;-66
2022/06/12 00:55:41;;;;;;;6.65;2.40;;;;;;;23.13;35.81;101246.28;4232045;28;20048;-66
2022/06/12 00:57:42;;;;;;;5.13;2.50;;;;;;;23.43;35.74;101297.47;4234892;27;20097;-66
2022/06/12 00:59:50;;;;;;;15.57;2.83;;;;;;;23.41;35.80;101289.38;4235044;27;20047;-65
2022/06/12 01:01:53;;;;;;;30.83;3.42;;;;;;;23.40;35.70;101286.88;4234999;27;20035;-67
2022/06/12 01:08:35;;;;;;;27.88;3.55;;;;;;;23.45;35.79;101290.47;4213687;28;20109;-64
2022/06/12 01:10:42;;;;;;;10.05;2.90;;;;;;;23.44;35.64;101302.78;4217510;28;20044;-67
2022/06/12 01:12:49;;;;;;;7.70;2.45;;;;;;;23.43;35.81;101297.47;4213571;28;20044;-65
2022/06/12 01:15:02;;;;;;;12.85;3.15;;;;;;;23.42;35.70;101313.41;4216764;28;20039;-65
2022/06/12 01:17:05;;;;;;;18.42;3.70;;;;;;;23.43;36.06;101309.50;4215745;28;20105;-66
2022/06/12 01:19:11;;;;;;;9.82;3.38;;;;;;;23.41;35.40;101316.47;4216109;28;20043;-66
2022/06/12 01:21:51;;;;;;;7.95;2.72;;;;;;;23.40;35.78;101320.41;4217375;28;20089;-65
2022/06/12 01:24:06;;;;;;;6.13;3.10;;;;;;;23.42;35.56;101323.75;4217790;28;20036;-66
2022/06/12 01:26:45;;;;;;;5.38;2.90;;;;;;;23.39;35.64;101325.16;4217068;28;20097;-66
2022/06/12 01:29:00;;;;;;;3.35;2.42;;;;;;;23.42;35.58;101332.13;4215791;28;20036;-65
2022/06/12 01:31:26;;;;;;;10.43;2.47;;;;;;;23.39;35.72;101343.88;4216530;28;20028;-66
2022/06/12 01:33:45;;;;;;;6.15;3.08;;;;;;;23.34;35.75;101328.81;4217132;28;20552;-66
2022/06/12 01:36:13;;;;;;;8.20;2.70;;;;;;;23.40;35.78;101351.13;4216375;28;20048;-67
2022/06/12 01:38:23;;;;;;;7.05;2.67;;;;;;;23.40;35.78;101339.94;4214405;28;20097;-66
2022/06/12 01:40:36;;;;;;;8.10;2.80;;;;;;;23.39;36.01;101352.25;4216233;28;20052;-66
2022/06/12 01:43:09;;;;;;;7.85;2.70;;;;;;;23.36;35.75;101342.47;4200535;28;20040;-66
2022/06/12 01:45:13;;;;;;;5.93;2.58;;;;;;;23.39;35.66;101346.66;4183541;28;20049;-65
2022/06/12 01:47:24;;;;;;;11.37;3.10;;;;;;;23.37;36.09;101348.88;4200140;28;20600;-67
2022/06/12 01:49:49;;;;;;;7.47;2.67;;;;;;;23.37;35.94;101351.69;4200253;28;20041;-67
2022/06/12 01:52:09;;;;;;;9.07;2.80;;;;;;;23.36;35.61;101347.22;4200691;28;20476;-68
2022/06/12 01:54:20;;;;;;;8.02;2.80;;;;;;;23.37;35.90;101360.06;4200317;28;20040;-65
2022/06/12 01:56:38;;;;;;;8.60;2.90;;;;;;;23.33;35.97;101363.44;4200771;28;20102;-66
2022/06/12 01:58:45;;;;;;;8.55;2.85;;;;;;;23.36;35.92;101366.78;4199793;28;20087;-65
2022/06/12 02:01:14;;;;;;;4.57;2.60;;;;;;;23.32;35.75;101372.94;4198840;28;20503;-65
2022/06/12 02:03:46;;;;;;;8.23;2.30;;;;;;;23.32;35.81;101370.16;4210966;28;20036;-67
2022/06/12 02:05:51;;;;;;;8.27;2.80;;;;;;;23.32;35.48;101363.72;4234069;28;20084;-67
2022/06/12 02:08:02;;;;;;;;;;;;;;;23.30;35.97;101369.59;4232877;28;20081;-66
2022/06/12 02:10:23;;;;;;;6.05;2.80;;;;;;;23.34;35.85;101367.91;4221493;28;19911;-67
2022/06/12 02:15:00;;;;;;;5.38;2.65;;;;;;;23.33;35.82;101369.03;4217149;28;20058;-67
2022/06/12 02:17:09;;;;;;;6.00;2.45;;;;;;;23.34;35.54;101370.69;4216702;28;20500;-67
2022/06/12 02:19:18;;;;;;;7.53;2.45;;;;;;;23.33;35.59;101376.56;4215313;28;20528;-65
2022/06/12 02:21:26;;;;;;;8.70;2.60;;;;;;;23.30;35.77;101372.38;4216277;28;20505;-66
2022/06/12 02:23:53;;;;;;;4.68;2.53;;;;;;;23.29;35.76;101365.13;4216508;28;20089;-67
2022/06/12 02:25:59;;;;;;;4.75;2.63;;;;;;;23.32;35.40;101381.34;4214786;28;20097;-66
2022/06/12 02:28:16;;;;;;;7.70;3.40;;;;;;;23.29;35.33;101381.91;4230553;28;20040;-66
2022/06/12 02:30:24;;;;;;;4.80;2.80;;;;;;;23.29;35.75;101392.22;4233519;28;20424;-66
2022/06/12 02:32:34;;;;;;;4.18;2.20;;;;;;;23.28;35.28;101385.81;4233811;28;20039;-66
2022/06/12 02:34:40;;;;;;;7.45;2.60;;;;;;;23.20;35.67;101375.22;4233300;28;20044;-65
2022/06/12 02:36:47;;;;;;;6.40;2.30;;;;;;;23.16;35.38;101371.34;4233269;28;20036;-67
2022/06/12 02:38:57;;;;;;;6.82;2.42;;;;;;;23.26;35.48;101388.03;4233136;28;20433;-67
2022/06/12 02:41:23;;;;;;;5.07;2.72;;;;;;;23.25;35.46;101386.38;4227313;27;20047;-66
2022/06/12 02:43:29;;;;;;;8.73;2.63;;;;;;;23.26;35.54;101376.88;4199729;28;20032;-66
2022/06/12 02:45:41;;;;;;;4.38;2.55;;;;;;;23.26;35.42;101387.22;4200009;28;20322;-68
2022/06/12 02:47:45;;;;;;;4.03;2.35;;;;;;;23.24;35.54;101379.13;4215998;28;20525;-66
2022/06/12 02:49:51;;;;;;;3.73;2.23;;;;;;;23.25;35.13;101380.78;4216521;28;20040;-65
2022/06/12 02:52:21;;;;;;;3.63;2.42;;;;;;;23.22;35.28;101381.34;4216958;28;20264;-65
2022/06/12 02:54:50;;;;;;;6.88;2.50;;;;;;;23.24;35.19;101381.91;4216729;28;20044;-65
2022/06/12 02:57:25;;;;;;;7.10;2.90;;;;;;;23.23;35.60;101382.19;4215131;28;20036;-66
2022/06/12 02:59:58;;;;;;;6.05;2.55;;;;;;;23.22;35.38;101380.53;4216181;28;20044;-67
2022/06/12 03:02:24;;;;;;;6.30;3.22;;;;;;;23.25;35.71;101391.13;4217219;28;20043;-69
2022/06/12 03:04:47;;;;;;;7.60;3.92;;;;;;;23.16;35.58;101368.56;4216504;28;20101;-72
2022/06/12 03:06:54;;;;;;;3.78;2.50;;;;;;;23.21;35.14;101374.09;4215180;28;20040;-69
2022/06/12 03:08:58;;;;;;;4.93;2.85;;;;;;;23.24;35.31;101378.28;4216276;28;20036;-72
2022/06/12 03:11:14;;;;;;;4.75;2.42;;;;;;;23.20;35.51;101377.19;4217453;28;20024;-69
2022/06/12 03:13:18;;;;;;;2.85;2.30;;;;;;;23.23;35.23;101376.59;4216206;28;20040;-68
2022/06/12 03:15:41;;;;;;;6.18;2.80;;;;;;;23.21;35.43;101379.69;4215862;28;20028;-66
2022/06/12 03:17:42;;;;;;;17.58;3.53;;;;;;;23.26;35.62;101370.44;4215857;28;20024;-65
2022/06/12 03:19:53;;;;;;;7.20;2.50;;;;;;;23.29;35.42;101367.09;4215893;28;20094;-67
2022/06/12 03:22:24;;;;;;;8.85;2.72;;;;;;;23.30;35.26;101377.97;4215639;28;20036;-66
2022/06/12 03:24:32;;;;;;;4.88;2.63;;;;;;;23.38;35.15;101378.50;4206786;28;20475;-67
2022/06/12 03:27:01;;;;;;;7.55;2.50;;;;;;;23.39;34.88;101381.00;4215672;28;20040;-67
2022/06/12 03:29:21;;;;;;;11.18;3.28;;;;;;;23.40;34.92;101377.09;4216120;28;20039;-67
2022/06/12 03:31:33;;;;;;;8.02;2.75;;;;;;;23.43;34.92;101375.69;4215452;28;20032;-67
2022/06/12 03:33:46;;;;;;;8.05;2.45;;;;;;;23.44;35.08;101371.75;4214948;28;20090;-66
2022/06/12 03:35:50;;;;;;;9.32;2.67;;;;;;;23.45;34.59;101370.63;4215546;28;20040;-65
2022/06/12 03:38:06;;;;;;;4.32;2.38;;;;;;;23.42;34.77;101369.28;4215364;28;20044;-67
2022/06/12 03:40:38;;;;;;;7.20;2.97;;;;;;;23.43;34.91;101375.69;4214796;28;20089;-68
2022/06/12 03:43:04;;;;;;;4.32;2.60;;;;;;;23.44;34.66;101380.13;4215811;28;20500;-67
2022/06/12 03:45:24;;;;;;;;;;;;;;;23.43;34.68;101384.91;4215552;28;20089;-66
2022/06/12 03:47:43;;;;;;;5.43;2.50;;;;;;;23.48;34.42;101392.41;4214552;28;19965;-65
2022/06/12 03:49:56;;;;;;;9.60;2.88;;;;;;;23.42;34.63;101385.19;4214459;28;20105;-66
2022/06/12 03:52:15;;;;;;;6.47;2.80;;;;;;;23.48;34.72;101395.22;4212722;28;20039;-66
2022/06/12 03:54:34;;;;;;;4.75;2.55;;;;;;;23.49;34.59;101396.88;4215290;28;20052;-66
2022/06/12 03:59:46;;;;;;;5.13;2.20;;;;;;;23.47;34.50;101393.53;4210351;28;20101;-67
2022/06/12 04:01:51;;;;;;;7.00;2.65;;;;;;;23.48;34.42;101390.44;4210748;28;20043;-65
2022/06/12 04:03:55;;;;;;;;;;;;;;;23.46;34.71;101380.69;4213471;28;20482;-66
2022/06/12 04:06:04;;;;;;;10.90;3.15;;;;;;;23.50;34.23;101387.38;4213943;28;20020;-66
2022/06/12 04:08:11;;;;;;;6.93;2.60;;;;;;;23.42;34.07;101374.03;4201606;28;20078;-66
2022/06/12 04:10:20;;;;;;;5.40;3.05;;;;;;;23.48;34.42;101384.03;4212759;28;20449;-65
2022/06/12 04:12:32;;;;;;;7.80;2.58;;;;;;;23.39;34.35;101382.97;4214012;28;20069;-67
2022/06/12 04:14:40;;;;;;;5.85;2.50;;;;;;;23.48;34.24;101395.22;4213167;28;20044;-66
2022/06/12 04:16:54;;;;;;;5.07;2.47;;;;;;;23.43;34.38;101392.44;4212706;28;20036;-66
2022/06/12 04:18:56;;;;;;;6.05;2.40;;;;;;;23.47;34.42;101385.16;4213619;28;20097;-65
2022/06/12 04:21:10;;;;;;;5.82;2.88;;;;;;;23.44;34.13;101389.34;4213548;28;20548;-65
2022/06/12 04:23:17;;;;;;;7.03;2.35;;;;;;;23.45;34.40;101385.44;4212249;28;20040;-65
2022/06/12 04:25:22;;;;;;;4.20;2.55;;;;;;;23.46;34.55;101381.53;4215330;28;20028;-66
2022/06/12 04:27:36;;;;;;;3.40;2.30;;;;;;;23.45;34.17;101384.59;4213337;28;20036;-70
2022/06/12 04:29:50;;;;;;;6.73;2.97;;;;;;;23.47;34.27;101387.97;4214111;28;20040;-65
2022/06/12 04:31:56;;;;;;;5.43;2.50;;;;;;;23.47;33.79;101377.63;4199467;28;20044;-65
2022/06/12 04:34:16;;;;;;;7.68;2.45;;;;;;;23.47;33.81;101382.38;4206090;28;20537;-65
2022/06/12 04:36:20;;;;;;;7.22;2.63;;;;;;;23.47;33.87;101377.63;4209369;28;20083;-65
2022/06/12 04:38:22;;;;;;;6.00;2.43;;;;;;;23.45;33.97;101365.88;4196198;28;20086;-65
2022/06/12 04:40:26;;;;;;;4.82;2.50;;;;;;;23.46;33.88;101366.72;4213005;28;20105;-65
2022/06/12 04:42:32;;;;;;;3.88;2.33;;;;;;;23.46;34.01;101367.56;4214113;28;20044;-65
2022/06/12 04:44:34;;;;;;;4.43;2.38;;;;;;;23.44;34.01;101357.81;4213143;28;20032;-66
2022/06/12 04:46:39;;;;;;;5.07;3.05;;;;;;;23.46;34.25;101363.91;4214373;28;20081;-66
2022/06/12 04:48:44;;;;;;;5.70;2.22;;;;;;;23.45;34.09;101367.84;4213267;28;20491;-67
2022/06/12 04:50:46;;;;;;;11.68;3.90;;;;;;;23.42;33.98;101366.47;4214722;28;20090;-66
2022/06/12 04:52:50;;;;;;;5.70;2.72;;;;;;;23.45;34.34;101373.44;4213023;28;20085;-65
2022/06/12 04:54:54;;;;;;;5.40;2.20;;;;;;;23.42;34.11;101372.06;4214051;28;20082;-65
2022/06/12 04:56:56;;;;;;;9.88;2.92;;;;;;;23.45;33.96;101367.84;4211768;28;20334;-66
2022/06/12 04:58:57;;;;;;;9.38;2.55;;;;;;;23.42;34.02;101368.44;4214151;28;20040;-66
2022/06/12 05:00:59;;;;;;;5.82;3.08;;;;;;;23.43;34.32;101370.09;4213912;28;20445;-65
2022/06/12 05:03:01;;;;;;;3.95;2.22;;;;;;;23.44;34.23;101369.81;4214369;28;20040;-65
2022/06/12 05:05:03;;;;;;;6.55;2.65;;;;;;;23.35;33.94;101357.56;4214338;28;20037;-66
2022/06/12 05:07:08;;;;;;;5.53;2.42;;;;;;;23.38;34.05;101353.38;4208681;28;20024;-65
2022/06/12 05:09:13;;;;;;;9.00;2.80;;;;;;;23.42;34.44;101369.28;4211952;28;20039;-64
2022/06/12 05:11:19;;;;;;;14.40;3.05;;;;;;;23.43;34.10;101370.94;4210504;28;20077;-65
2022/06/12 05:13:20;;;;;;;7.22;2.53;;;;;;;23.43;34.18;101375.69;4213134;28;20094;-66
2022/06/12 05:15:25;;;;;;;7.35;2.58;;;;;;;23.44;34.45;101380.97;4212805;28;20040;-65
2022/06/12 05:17:27;;;;;;;57.67;5.60;;;;;;;23.43;34.71;101381.28;4212300;28;20090;-66
2022/06/12 05:19:32;;;;;;;51.80;5.65;;;;;;;23.45;35.22;101379.00;4213071;28;20353;-64
2022/06/12 05:21:34;;;;;;;13.40;2.50;;;;;;;23.47;34.78;101376.78;4213241;28;20101;-64
2022/06/12 05:23:35;;;;;;;22.33;3.78;;;;;;;23.47;34.53;101382.38;4214591;28;20085;-67
2022/06/12 05:25:37;;;;;;;18.75;3.42;;;;;;;23.48;34.66;101384.03;4214443;28;20043;-66
2022/06/12 05:27:39;;;;;;;13.00;2.95;;;;;;;23.41;34.68;101373.16;4214514;28;20040;-66
2022/06/12 05:29:44;;;;;;;12.35;2.70;;;;;;;23.41;34.54;101377.91;4212699;28;20153;-66
2022/06/12 05:31:46;;;;;;;7.13;2.50;;;;;;;23.46;34.37;101387.13;4213482;28;20040;-66
2022/06/12 05:33:48;;;;;;;16.30;3.05;;;;;;;23.46;34.58;101389.91;4214029;28;20101;-66
2022/06/12 05:35:49;;;;;;;11.15;2.53;;;;;;;23.45;34.40;101385.44;4213382;28;20376;-66
2022/06/12 05:37:51;;;;;;;8.15;2.90;;;;;;;23.44;34.37;101382.94;4213939;28;20032;-67
2022/06/12 05:39:53;;;;;;;9.50;2.53;;;;;;;23.43;34.60;101384.91;4214095;28;20101;-66
2022/06/12 05:41:54;;;;;;;12.68;2.78;;;;;;;23.44;34.52;101391.31;4214724;28;20078;-67
2022/06/12 05:43:55;;;;;;;11.35;2.70;;;;;;;23.43;34.18;101392.44;4217213;28;20047;-66
2022/06/12 05:46:00;;;;;;;9.43;2.80;;;;;;;23.42;34.34;101383.22;4217067;28;20045;-67
2022/06/12 05:48:10;;;;;;;8.13;2.63;;;;;;;23.42;34.53;101388.00;4216906;28;20548;-67
2022/06/12 05:50:12;;;;;;;5.70;2.30;;;;;;;23.42;34.56;101386.03;4216904;28;20070;-67
2022/06/12 05:52:14;;;;;;;10.07;3.50;;;;;;;23.42;34.36;101383.22;4217029;28;20036;-67
2022/06/12 05:54:16;;;;;;;6.90;2.33;;;;;;;23.41;34.42;101384.34;4217128;28;20032;-66
2022/06/12 05:56:21;;;;;;;10.93;2.50;;;;;;;23.40;34.36;101381.84;4216121;28;20097;-68
2022/06/12 05:58:24;;;;;;;9.05;2.65;;;;;;;23.41;34.02;101389.09;4216801;28;20429;-66
2022/06/12 06:00:29;;;;;;;6.75;2.33;;;;;;;23.39;34.24;101377.38;4217299;28;20036;-67
2022/06/12 06:02:30;;;;;;;6.97;2.33;;;;;;;23.40;33.89;101381.84;4216901;28;20048;-67
2022/06/12 06:04:32;;;;;;;6.85;2.80;;;;;;;23.39;33.92;101374.59;4217002;28;20090;-67
2022/06/12 06:06:46;;;;;;;7.72;2.45;;;;;;;23.30;34.07;101372.38;4216850;28;20036;-67
2022/06/12 06:08:48;;;;;;;5.50;2.63;;;;;;;23.37;34.08;101376.81;4215137;28;20036;-67
2022/06/12 06:10:50;;;;;;;8.63;2.35;;;;;;;23.37;33.96;101365.66;4214959;28;20536;-66
2022/06/12 06:12:52;;;;;;;7.20;2.20;;;;;;;23.37;33.72;101365.66;4216720;28;20032;-66
2022/06/12 06:14:54;;;;;;;5.32;2.45;;;;;;;23.33;33.72;101371.00;4214854;28;20449;-66
2022/06/12 06:17:01;;;;;;;4.57;2.17;;;;;;;23.30;33.86;101365.97;4216490;28;20040;-66
2022/06/12 06:19:03;;;;;;;5.65;2.00;;;;;;;23.32;33.77;101367.38;4215122;28;20036;-67
2022/06/12 06:21:04;;;;;;;6.93;2.60;;;;;;;23.27;33.56;101353.41;4216554;28;20070;-67
2022/06/12 06:23:07;;;;;;;6.18;2.45;;;;;;;23.33;34.01;101359.81;4215724;28;20023;-66
2022/06/12 06:25:10;;;;;;;4.85;2.20;;;;;;;23.34;33.83;101372.66;4219302;28;20040;-66
2022/06/12 06:27:13;;;;;;;7.30;2.42;;;;;;;23.30;33.67;101369.59;4216461;28;20097;-66
2022/06/12 06:29:14;;;;;;;4.15;2.38;;;;;;;23.32;34.06;101364.56;4214408;28;20040;-67
2022/06/12 06:31:16;;;;;;;7.80;3.05;;;;;;;23.32;33.69;101361.78;4217684;28;20105;-67
2022/06/12 06:33:20;;;;;;;6.45;2.50;;;;;;;23.33;33.61;101362.63;4209944;28;20032;-67
2022/06/12 06:35:23;;;;;;;6.43;2.75;;;;;;;23.31;33.81;101362.88;4200701;28;20118;-66
2022/06/12 06:37:27;;;;;;;6.35;2.78;;;;;;;23.28;33.67;101352.31;4200132;28;20365;-67
2022/06/12 06:39:32;;;;;;;7.30;2.65;;;;;;;23.31;33.85;101356.47;4208530;28;20092;-67
2022/06/12 06:41:33;;;;;;;5.28;2.53;;;;;;;23.27;33.98;101358.16;4201158;28;20106;-68
2022/06/12 06:46:13;;;;;;;6.72;2.88;;;;;;;23.30;33.91;101363.19;4207891;28;20043;-67
2022/06/12 06:46:14;;;;;;;4.68;2.65;;;;;;;23.29;33.68;101367.09;4215750;28;20036;-66
2022/06/12 06:48:15;;;;;;;8.10;4.25;;;;;;;23.28;34.04;101374.66;4216350;28;20923;-67
2022/06/12 06:50:18;;;;;;;7.45;3.63;;;;;;;23.29;33.84;101370.72;4214510;28;20040;-67
2022/06/12 06:52:20;;;;;;;6.88;2.80;;;;;;;23.27;34.12;101361.78;4210552;28;20047;-66
2022/06/12 06:54:22;;;;;;;5.70;3.28;;;;;;;23.24;33.83;101358.75;4214771;28;20097;-67
2022/06/12 06:56:24;;;;;;;7.55;4.32;;;;;;;23.26;34.04;101365.69;4213681;28;20036;-67
2022/06/12 06:58:31;;;;;;;7.20;3.80;;;;;;;23.27;33.74;101358.16;4215954;28;20040;-67
2022/06/12 07:00:33;;;;;;;8.30;3.83;;;;;;;23.27;34.02;101350.59;4215064;28;20073;-66
2022/06/12 07:02:35;;;;;;;7.20;4.00;;;;;;;23.26;34.06;101348.94;4216083;28;20093;-66
2022/06/12 07:04:37;;;;;;;7.63;3.92;;;;;;;23.11;34.02;101323.91;4216062;28;20464;-66
2022/06/12 07:06:39;;;;;;;6.43;3.50;;;;;;;23.16;33.94;101320.25;4214206;28;20093;-66
2022/06/12 07:08:40;;;;;;;7.15;3.90;;;;;;;23.25;34.01;101329.69;4215488;28;20044;-68
2022/06/12 07:10:43;;;;;;;5.32;3.47;;;;;;;23.24;34.13;101334.47;4214855;28;20036;-68
2022/06/12 07:12:49;;;;;;;7.35;4.05;;;;;;;23.24;33.74;101334.47;4216114;28;20028;-66
2022/06/12 07:14:50;;;;;;;5.50;3.63;;;;;;;23.20;34.01;101330.56;4214560;28;20073;-67
2022/06/12 07:16:51;;;;;;;7.13;4.13;;;;;;;23.24;33.81;101331.66;4215782;28;20040;-67
2022/06/12 07:18:53;;;;;;;5.40;4.10;;;;;;;23.23;33.96;101335.59;4214582;28;20044;-66
2022/06/12 07:21:01;;;;;;;8.07;4.05;;;;;;;23.14;34.22;101312.19;4213476;28;20066;-66
2022/06/12 07:23:05;;;;;;;25.27;5.57;;;;;;;23.26;34.42;101331.38;4214783;28;20096;-67
2022/06/12 07:25:10;;;;;;;18.10;4.20;;;;;;;22.05;34.10;101128.78;4199079;28;20403;-67
2022/06/12 07:27:12;;;;;;;11.38;4.20;;;;;;;23.30;34.01;101312.91;4199979;28;20040;-67
2022/06/12 07:29:19;;;;;;;9.38;4.32;;;;;;;23.31;34.36;101317.38;4208127;28;20552;-67
2022/06/12 07:31:22;;;;;;;10.95;4.00;;;;;;;23.32;33.92;101314.31;4213798;28;20435;-67
2022/06/12 07:33:24;;;;;;;11.85;4.18;;;;;;;23.33;33.99;101309.56;4214498;28;20109;-67
2022/06/12 07:35:25;;;;;;;12.65;4.43;;;;;;;23.36;34.36;101316.50;4215474;28;20036;-66
2022/06/12 07:37:27;;;;;;;9.38;4.03;;;;;;;23.34;34.25;101309.25;4215128;28;20105;-67
2022/06/12 07:39:31;;;;;;;17.58;4.80;;;;;;;23.35;34.05;101307.28;4213321;28;20043;-67
2022/06/12 07:41:32;;;;;;;8.40;4.18;;;;;;;23.30;34.37;101290.56;4215367;28;20028;-67
2022/06/12 07:43:37;;;;;;;7.22;3.78;;;;;;;23.35;34.34;101304.50;4214409;28;20036;-67
2022/06/12 07:45:41;;;;;;;7.43;4.20;;;;;;;23.30;34.24;101305.38;4214412;28;20040;-67
2022/06/12 07:47:45;;;;;;;6.32;3.92;;;;;;;23.37;34.12;101321.81;4214880;28;20070;-66
2022/06/12 07:49:49;;;;;;;6.80;4.15;;;;;;;23.38;34.41;101320.69;4214053;28;20032;-66
2022/06/12 07:51:52;;;;;;;8.77;4.30;;;;;;;23.39;34.27;101313.16;4215203;28;20052;-67
2022/06/12 07:53:56;;;;;;;6.47;4.05;;;;;;;23.38;34.27;101320.69;4214180;28;20054;-66
2022/06/12 07:56:05;;;;;;;5.78;3.50;;;;;;;23.36;34.10;101317.34;4214180;28;20097;-67
2022/06/12 07:58:10;;;;;;;6.22;4.32;;;;;;;23.41;34.46;101327.66;4213849;28;20040;-66
2022/06/12 08:00:18;;;;;;;6.53;4.15;;;;;;;23.40;34.25;101315.63;4210424;28;20502;-67
2022/06/12 08:02:20;;;;;;;8.75;4.03;;;;;;;23.42;34.56;101323.75;4201687;28;20040;-67
2022/06/12 08:04:23;;;;;;;7.10;3.72;;;;;;;23.41;34.19;101311.72;4198125;28;20041;-67
2022/06/12 08:06:25;;;;;;;9.77;3.95;;;;;;;23.40;34.62;101310.06;4202196;28;20044;-67
2022/06/12 08:08:27;;;;;;;5.53;3.78;;;;;;;23.41;34.38;101316.47;4214908;28;20044;-66
2022/06/12 08:10:29;;;;;;;6.93;3.92;;;;;;;23.42;34.53;101318.16;4214984;28;20475;-67
2022/06/12 08:12:33;;;;;;;7.53;3.95;;;;;;;23.42;34.57;101323.75;4213905;28;20040;-67
2022/06/12 08:14:35;;;;;;;5.77;4.57;;;;;;;23.41;34.35;101320.09;4214155;28;20149;-66
2022/06/12 08:16:37;;;;;;;9.02;3.97;;;;;;;23.42;34.56;101312.59;4213873;28;20277;-67
2022/06/12 08:18:39;;;;;;;5.53;3.78;;;;;;;23.38;34.29;101305.91;4214498;28;20113;-66
2022/06/12 08:20:45;;;;;;;7.70;4.15;;;;;;;23.42;34.55;101309.78;4214964;28;20074;-66
2022/06/12 08:22:46;;;;;;;5.55;3.60;;;;;;;23.42;34.33;101313.41;4213378;28;20052;-67
2022/06/12 08:24:51;;;;;;;5.82;3.75;;;;;;;23.39;34.26;101313.16;4215029;28;20861;-66
2022/06/12 08:26:52;;;;;;;4.47;3.90;;;;;;;23.44;34.46;101321.50;4213331;28;20047;-66
2022/06/12 08:29:02;;;;;;;7.13;4.57;;;;;;;23.43;34.32;101317.03;4213162;28;20044;-67
2022/06/12 08:31:07;;;;;;;5.35;3.30;;;;;;;23.40;34.41;101314.81;4214604;28;20090;-66
2022/06/12 08:33:08;;;;;;;;;;;;;;;23.42;34.41;101318.16;4215286;28;20044;-66
2022/06/12 08:35:14;;;;;;;8.05;3.88;;;;;;;23.45;34.19;101314.78;4213515;28;20453;-67
2022/06/12 08:37:23;;;;;;;6.43;4.25;;;;;;;23.46;34.20;101314.50;4213134;28;20045;-66
2022/06/12 08:39:29;;;;;;;3.95;3.38;;;;;;;23.45;34.87;101311.97;4213750;28;20077;-67
2022/06/12 08:41:45;;;;;;;4.82;3.78;;;;;;;23.46;34.64;101325.69;4214492;28;20048;-67
2022/06/12 08:44:17;;;;;;;4.47;3.72;;;;;;;23.45;34.80;101329.56;4214662;28;20104;-67
2022/06/12 08:46:28;;;;;;;5.03;3.70;;;;;;;23.47;34.66;101326.50;4209111;28;20516;-67
2022/06/12 08:48:39;;;;;;;5.10;4.03;;;;;;;23.46;34.27;101320.09;4212129;28;20048;-66
2022/06/12 08:50:56;;;;;;;4.85;3.92;;;;;;;23.44;34.62;101327.91;4214509;28;20048;-66
2022/06/12 08:53:22;;;;;;;4.20;3.80;;;;;;;23.44;34.25;101322.31;4213633;28;20040;-66
2022/06/12 08:55:34;;;;;;;6.18;4.22;;;;;;;23.46;34.44;101320.09;4212713;28;20039;-66
2022/06/12 08:57:56;;;;;;;6.53;4.30;;;;;;;23.45;34.53;101328.75;4214112;28;20445;-67
2022/06/12 09:00:15;;;;;;;5.15;4.30;;;;;;;23.45;34.23;101329.56;4214377;28;20105;-67
2022/06/12 09:02:26;;;;;;;5.43;4.50;;;;;;;23.34;34.49;101312.06;4199006;28;20499;-67
2022/06/12 09:04:28;;;;;;;5.78;4.72;;;;;;;23.37;34.44;101315.38;4210255;28;20095;-67
2022/06/12 09:06:30;;;;;;;10.75;4.93;;;;;;;23.45;34.55;101320.34;4214682;28;20036;-67
2022/06/12 09:08:45;;;;;;;6.05;4.40;;;;;;;23.45;34.63;101331.53;4214154;28;20089;-67
2022/06/12 09:10:51;;;;;;;;;;;;;;;23.44;34.82;101327.06;4211563;28;20089;-67
2022/06/12 09:13:05;;;;;;;7.55;5.00;;;;;;;23.49;34.41;101329.84;4214865;28;19941;-67
2022/06/12 09:15:32;;;;;;;7.32;4.63;;;;;;;23.48;34.53;101339.34;4210976;28;20044;-67
2022/06/12 09:17:57;;;;;;;7.65;5.18;;;;;;;23.46;34.55;101347.16;4214654;28;20479;-67
2022/06/12 09:20:17;;;;;;;7.93;5.20;;;;;;;23.46;34.79;101352.75;4217297;28;20086;-66
2022/06/12 09:22:59;;;;;;;7.47;4.70;;;;;;;23.46;34.71;101355.53;4217413;28;20433;-67
2022/06/12 09:25:06;;;;;;;6.40;4.30;;;;;;;23.48;34.36;101367.28;4209317;28;20097;-67
2022/06/12 09:27:39;;;;;;;6.85;4.32;;;;;;;23.46;34.68;101363.91;4217390;28;20463;-67
2022/06/12 09:29:46;;;;;;;7.00;4.80;;;;;;;23.47;34.68;101371.19;4217387;28;20036;-67
2022/06/12 09:31:52;;;;;;;5.68;4.38;;;;;;;23.46;34.67;101372.28;4217262;28;20040;-67
2022/06/12 09:34:33;;;;;;;5.35;4.38;;;;;;;23.43;34.81;101365.34;4215424;28;20044;-66
2022/06/12 09:36:46;;;;;;;6.15;4.82;;;;;;;23.47;34.73;101372.03;4197326;28;20040;-67
2022/06/12 09:39:01;;;;;;;6.80;4.68;;;;;;;23.46;34.83;101369.50;4216571;28;20093;-67
2022/06/12 09:41:08;;;;;;;5.65;4.55;;;;;;;23.46;34.74;101344.38;4217693;28;20043;-67
2022/06/12 09:43:35;;;;;;;5.18;4.45;;;;;;;23.45;34.61;101351.09;4217594;28;20098;-67
2022/06/12 09:46:00;;;;;;;7.82;4.75;;;;;;;23.47;34.45;101374.00;4216235;28;20094;-67
2022/06/12 09:48:29;;;;;;;6.10;4.30;;;;;;;23.44;34.37;101363.38;4216888;28;20044;-67
2022/06/12 09:50:53;;;;;;;5.90;4.43;;;;;;;23.45;34.73;101359.47;4217181;28;20036;-66
2022/06/12 09:53:39;;;;;;;5.28;4.43;;;;;;;23.45;34.90;101370.63;4211606;28;20426;-67
2022/06/12 09:55:53;;;;;;;6.82;4.30;;;;;;;23.47;34.81;101374.00;4214470;28;20425;-67
2022/06/12 09:58:22;;;;;;;7.03;4.45;;;;;;;23.42;35.06;101379.59;4216684;28;20196;-67
2022/06/12 10:00:49;;;;;;;5.30;4.47;;;;;;;23.46;34.97;101397.44;4213502;28;20036;-67
2022/06/12 10:03:23;;;;;;;4.70;4.18;;;;;;;23.47;35.12;101388.78;4215492;28;20036;-67
2022/06/12 10:05:54;;;;;;;5.88;4.20;;;;;;;23.47;35.04;101382.38;4198013;28;20101;-67
2022/06/12 10:08:37;;;;;;;4.45;3.70;;;;;;;23.49;35.02;101385.69;4214924;28;20053;-66
2022/06/12 10:10:58;;;;;;;6.70;4.10;;;;;;;23.49;34.82;101372.56;4216833;28;20036;-66
2022/06/12 10:13:07;;;;;;;6.15;4.70;;;;;;;23.50;35.02;101381.78;4216662;28;20036;-67